createdAt,value
2023-05-08T00:00:38.690Z,102171.84
2023-05-08T00:03:05.090Z,102168.34
2023-05-08T00:05:31.477Z,102169.19
2023-05-08T00:08:01.445Z,102166.56
2023-05-08T00:10:28.884Z,102174.41
2023-05-08T00:12:55.791Z,102168.28
2023-05-08T00:15:22.233Z,102174.34
2023-05-08T00:17:48.639Z,102169.97
2023-05-08T00:20:15.325Z,102163.00
2023-05-08T00:22:41.867Z,102172.53
2023-05-08T00:25:09.053Z,102170.72
2023-05-08T00:27:35.474Z,102174.22
2023-05-08T00:30:01.890Z,102171.59
2023-05-08T00:32:28.886Z,102178.53
2023-05-08T00:34:55.402Z,102182.00
2023-05-08T00:37:21.825Z,102176.75
2023-05-08T00:39:48.175Z,102175.84
2023-05-08T00:42:14.688Z,102175.84
2023-05-08T00:44:41.269Z,102172.34
2023-05-08T00:47:07.805Z,102174.97
2023-05-08T00:49:35.668Z,102174.06
2023-05-08T00:52:02.405Z,102170.56
2023-05-08T00:54:28.758Z,102174.84
2023-05-08T00:56:55.236Z,102177.50
2023-05-08T00:59:22.679Z,102171.44
2023-05-08T01:01:49.273Z,102181.00
2023-05-08T01:04:16.099Z,102173.16
2023-05-08T01:06:42.470Z,102184.44
2023-05-08T01:09:08.794Z,102181.81
2023-05-08T01:11:41.294Z,102191.34
2023-05-08T01:14:11.163Z,102190.44
2023-05-08T01:16:45.071Z,102184.31
2023-05-08T01:19:20.948Z,102193.81
2023-05-08T01:22:10.612Z,102186.81
2023-05-08T01:24:43.453Z,102196.22
2023-05-08T01:27:09.818Z,102193.59
2023-05-08T01:29:44.186Z,102192.69
2023-05-08T01:32:21.155Z,102204.84
2023-05-08T01:35:17.016Z,102204.66
2023-05-08T01:37:46.213Z,102205.50
2023-05-08T01:40:13.469Z,102206.28
2023-05-08T01:42:43.054Z,102203.66
2023-05-08T01:45:11.233Z,102202.78
2023-05-08T01:47:37.942Z,102201.94
2023-05-08T01:50:22.356Z,102200.19
2023-05-08T01:52:50.481Z,102199.16
2023-05-08T01:55:18.735Z,102205.25
2023-05-08T01:57:47.299Z,102203.50
2023-05-08T02:00:14.275Z,102212.16
2023-05-08T02:02:40.976Z,102210.34
2023-05-08T02:05:07.663Z,102214.53
2023-05-08T02:07:35.156Z,102214.53
2023-05-08T02:10:03.233Z,102211.94
2023-05-08T02:12:29.833Z,102211.06
2023-05-08T02:14:56.169Z,102211.88
2023-05-08T02:17:22.549Z,102215.28
2023-05-08T02:19:48.963Z,102209.09
2023-05-08T02:22:15.591Z,102218.56
2023-05-08T02:24:41.929Z,102215.19
2023-05-08T02:27:08.483Z,102215.25
2023-05-08T02:29:34.965Z,102217.78
2023-05-08T02:32:01.358Z,102215.16
2023-05-08T02:34:28.274Z,102223.88
2023-05-08T02:36:54.646Z,102216.03
2023-05-08T02:39:21.427Z,102229.69
2023-05-08T02:41:47.882Z,102232.13
2023-05-08T02:44:14.285Z,102228.53
2023-05-08T02:46:53.991Z,102219.75
2023-05-08T02:49:43.529Z,102226.78
2023-05-08T02:52:14.010Z,102221.47
2023-05-08T02:55:00.633Z,102228.31
2023-05-08T02:57:37.630Z,102224.03
2023-05-08T03:00:13.355Z,102230.16
2023-05-08T03:02:43.957Z,102230.91
2023-05-08T03:05:15.361Z,102231.78
2023-05-08T03:07:41.846Z,102234.19
2023-05-08T03:10:10.808Z,102236.00
2023-05-08T03:12:39.441Z,102236.09
2023-05-08T03:15:07.787Z,102239.56
2023-05-08T03:17:34.257Z,102237.75
2023-05-08T03:20:01.456Z,102246.41
2023-05-08T03:22:27.782Z,102235.84
2023-05-08T03:24:54.128Z,102230.69
2023-05-08T03:27:20.508Z,102233.31
2023-05-08T03:29:46.892Z,102236.75
2023-05-08T03:32:13.538Z,102245.53
2023-05-08T03:34:39.856Z,102243.03
2023-05-08T03:37:06.168Z,102237.75
2023-05-08T03:39:32.577Z,102237.03
2023-05-08T03:41:58.967Z,102235.28
2023-05-08T03:44:25.425Z,102231.88
2023-05-08T03:46:52.897Z,102241.50
2023-05-08T03:49:19.350Z,102235.44
2023-05-08T03:51:45.715Z,102242.44
2023-05-08T03:54:12.138Z,102240.75
2023-05-08T03:56:38.614Z,102241.69
2023-05-08T03:59:15.220Z,102238.38
2023-05-08T04:01:48.897Z,102241.84
2023-05-08T04:04:15.317Z,102244.59
2023-05-08T04:06:50.559Z,102236.84
2023-05-08T04:09:18.878Z,102241.38
2023-05-08T04:11:51.432Z,102252.66
2023-05-08T04:14:19.574Z,102245.00
2023-05-08T04:16:50.246Z,102249.50
2023-05-08T04:19:20.965Z,102253.91
2023-05-08T04:21:47.306Z,102248.84
2023-05-08T04:24:15.013Z,102248.94
2023-05-08T04:26:41.969Z,102258.59
2023-05-08T04:29:08.272Z,102253.50
2023-05-08T04:31:34.904Z,102264.00
2023-05-08T04:34:01.863Z,102261.56
2023-05-08T04:36:29.492Z,102258.16
2023-05-08T04:38:55.863Z,102259.97
2023-05-08T04:41:22.681Z,102263.50
2023-05-08T04:43:49.105Z,102260.13
2023-05-08T04:46:15.495Z,102265.44
2023-05-08T04:48:41.916Z,102274.22
2023-05-08T04:51:08.299Z,102276.03
2023-05-08T04:53:34.614Z,102278.72
2023-05-08T04:56:01.044Z,102282.28
2023-05-08T04:58:28.936Z,102281.47
2023-05-08T05:00:55.260Z,102278.97
2023-05-08T05:03:21.750Z,102283.41
2023-05-08T05:05:48.110Z,102288.69
2023-05-08T05:08:14.429Z,102287.84
2023-05-08T05:10:40.903Z,102293.13
2023-05-08T05:13:07.290Z,102284.44
2023-05-08T05:15:33.714Z,102287.09
2023-05-08T05:18:00.319Z,102293.22
2023-05-08T05:20:26.740Z,102294.06
2023-05-08T05:22:53.096Z,102293.19
2023-05-08T05:25:19.568Z,102300.16
2023-05-08T05:27:45.952Z,102299.28
2023-05-08T05:30:12.622Z,102299.25
2023-05-08T05:32:39.332Z,102303.59
2023-05-08T05:35:08.133Z,102300.06
2023-05-08T05:37:34.457Z,102298.28
2023-05-08T05:40:00.827Z,102291.22
2023-05-08T05:42:27.196Z,102297.25
2023-05-08T05:44:53.549Z,102303.25
2023-05-08T05:47:20.014Z,102299.63
2023-05-08T05:49:49.178Z,102288.09
2023-05-08T05:52:16.845Z,102299.38
2023-05-08T05:54:43.475Z,102298.47
2023-05-08T05:57:09.866Z,102304.47
2023-05-08T05:59:36.555Z,102299.03
2023-05-08T06:02:03.509Z,102304.97
2023-05-08T06:04:29.994Z,102302.13
2023-05-08T06:06:56.727Z,102300.94
2023-05-08T06:09:23.090Z,102306.69
2023-05-08T06:11:49.384Z,102302.72
2023-05-08T06:14:15.768Z,102302.28
2023-05-08T06:16:42.274Z,102302.94
2023-05-08T06:19:08.629Z,102300.53
2023-05-08T06:21:34.939Z,102301.09
2023-05-08T06:24:03.821Z,102299.31
2023-05-08T06:26:30.240Z,102301.66
2023-05-08T06:28:56.801Z,102302.59
2023-05-08T06:31:23.252Z,102304.16
2023-05-08T06:33:49.616Z,102306.31
2023-05-08T06:36:17.170Z,102301.31
2023-05-08T06:38:43.569Z,102302.28
2023-05-08T06:41:09.915Z,102303.34
2023-05-08T06:43:36.222Z,102302.56
2023-05-08T06:46:02.692Z,102299.31
2023-05-08T06:48:29.205Z,102302.47
2023-05-08T06:50:56.390Z,102302.31
2023-05-08T06:53:22.877Z,102297.91
2023-05-08T06:55:49.225Z,102298.91
2023-05-08T06:58:15.793Z,102297.47
2023-05-08T07:00:42.584Z,102302.44
2023-05-08T07:03:09.007Z,102304.19
2023-05-08T07:05:35.487Z,102303.25
2023-05-08T07:08:02.012Z,102298.13
2023-05-08T07:10:28.424Z,102305.19
2023-05-08T07:12:54.881Z,102302.28
2023-05-08T07:15:26.531Z,102296.88
2023-05-08T07:17:53.636Z,102304.44
2023-05-08T07:20:20.379Z,102301.53
2023-05-08T07:22:46.788Z,102298.75
2023-05-08T07:25:13.332Z,102310.47
2023-05-08T07:27:39.962Z,102299.91
2023-05-08T07:30:06.811Z,102304.44
2023-05-08T07:32:33.202Z,102298.69
2023-05-08T07:34:59.676Z,102292.28
2023-05-08T07:37:26.176Z,102293.84
2023-05-08T07:39:52.612Z,102298.56
2023-05-08T07:42:18.934Z,102289.47
2023-05-08T07:44:54.479Z,102294.88
2023-05-08T07:47:21.710Z,102291.16
2023-05-08T07:49:48.078Z,102292.44
2023-05-08T07:52:14.463Z,102291.41
2023-05-08T07:54:40.814Z,102285.03
2023-05-08T07:57:07.216Z,102287.06
2023-05-08T07:59:33.611Z,102288.09
2023-05-08T08:02:00.245Z,102295.28
2023-05-08T08:04:27.801Z,102297.56
2023-05-08T08:06:54.329Z,102297.09
2023-05-08T08:09:20.740Z,102301.03
2023-05-08T08:11:47.323Z,102305.66
2023-05-08T08:14:13.680Z,102293.00
2023-05-08T08:16:40.062Z,102303.28
2023-05-08T08:19:06.815Z,102299.66
2023-05-08T08:21:33.166Z,102305.63
2023-05-08T08:23:59.711Z,102305.81
2023-05-08T08:26:26.831Z,102307.88
2023-05-08T08:28:53.169Z,102297.84
2023-05-08T08:31:20.082Z,102298.44
2023-05-08T08:33:46.726Z,102297.97
2023-05-08T08:36:13.843Z,102302.50
2023-05-08T08:38:40.210Z,102296.72
2023-05-08T08:41:06.541Z,102308.00
2023-05-08T08:43:33.204Z,102300.78
2023-05-08T08:46:00.800Z,102303.03
2023-05-08T08:48:28.132Z,102297.78
2023-05-08T08:50:57.665Z,102305.19
2023-05-08T08:53:26.187Z,102299.41
2023-05-08T08:55:53.833Z,102299.00
2023-05-08T08:58:40.608Z,102295.06
2023-05-08T09:01:07.342Z,102294.47
2023-05-08T09:03:33.774Z,102299.41
2023-05-08T09:06:03.269Z,102303.06
2023-05-08T09:08:29.849Z,102299.41
2023-05-08T09:10:59.227Z,102296.72
2023-05-08T09:13:26.289Z,102294.31
2023-05-08T09:15:53.327Z,102295.44
2023-05-08T09:18:19.658Z,102293.41
2023-05-08T09:20:46.126Z,102293.47
2023-05-08T09:23:15.129Z,102294.69
2023-05-08T09:25:45.485Z,102297.13
2023-05-08T09:28:16.079Z,102290.41
2023-05-08T09:31:08.565Z,102296.75
2023-05-08T09:33:34.910Z,102291.84
2023-05-08T09:36:01.240Z,102295.28
2023-05-08T09:38:34.875Z,102292.41
2023-05-08T09:41:10.280Z,102299.13
2023-05-08T09:43:36.772Z,102294.09
2023-05-08T09:46:24.681Z,102292.69
2023-05-08T09:48:51.610Z,102291.84
2023-05-08T09:51:18.204Z,102289.84
2023-05-08T09:53:44.724Z,102278.56
2023-05-08T09:56:11.127Z,102273.56
2023-05-08T09:58:38.382Z,102276.72
2023-05-08T10:01:04.884Z,102262.06
2023-05-08T10:03:47.796Z,102269.06
2023-05-08T10:06:14.847Z,102265.84
2023-05-08T10:08:41.431Z,102269.19
2023-05-08T10:11:15.302Z,102261.94
2023-05-08T10:13:41.714Z,102262.41
2023-05-08T10:16:08.161Z,102266.09
2023-05-08T10:18:36.094Z,102266.75
2023-05-08T10:21:02.939Z,102260.63
2023-05-08T10:23:29.339Z,102266.50
2023-05-08T10:25:56.216Z,102255.72
2023-05-08T10:28:29.434Z,102260.00
2023-05-08T10:30:56.833Z,102257.22
2023-05-08T10:33:23.957Z,102253.00
2023-05-08T10:35:50.451Z,102260.72
2023-05-08T10:38:16.926Z,102252.50
2023-05-08T10:40:43.346Z,102248.78
2023-05-08T10:43:09.861Z,102250.88
2023-05-08T10:45:36.212Z,102250.22
2023-05-08T10:48:16.627Z,102255.53
2023-05-08T10:50:52.349Z,102251.13
2023-05-08T10:53:24.842Z,102251.34
2023-05-08T10:55:51.739Z,102242.84
2023-05-08T10:58:24.342Z,102243.97
2023-05-08T11:00:56.735Z,102239.25
2023-05-08T11:03:31.244Z,102239.97
2023-05-08T11:05:58.990Z,102231.75
2023-05-08T11:08:27.450Z,102224.81
2023-05-08T11:11:05.017Z,102230.47
2023-05-08T11:13:38.078Z,102223.91
2023-05-08T11:16:06.585Z,102225.09
2023-05-08T11:21:06.189Z,102221.75
2023-05-08T11:23:33.325Z,102212.88
2023-05-08T11:26:06.580Z,102209.72
2023-05-08T11:28:34.433Z,102213.81
2023-05-08T11:31:04.742Z,102208.81
2023-05-08T11:33:37.085Z,102214.00
2023-05-08T11:36:15.422Z,102207.19
2023-05-08T11:38:43.521Z,102207.13
2023-05-08T11:41:10.684Z,102204.56
2023-05-08T11:43:44.207Z,102201.47
2023-05-08T11:46:13.675Z,102207.03
2023-05-08T11:48:40.072Z,102200.59
2023-05-08T11:51:06.487Z,102207.16
2023-05-08T11:53:33.019Z,102200.69
2023-05-08T11:55:59.756Z,102203.44
2023-05-08T11:58:26.384Z,102202.28
2023-05-08T12:00:53.115Z,102191.41
2023-05-08T12:03:20.156Z,102199.13
2023-05-08T12:05:46.807Z,102199.19
2023-05-08T12:08:13.824Z,102200.25
2023-05-08T12:10:46.889Z,102204.03
2023-05-08T12:13:18.100Z,102205.59
2023-05-08T12:15:45.230Z,102193.69
2023-05-08T12:18:11.707Z,102192.25
2023-05-08T12:20:38.237Z,102189.72
2023-05-08T12:23:04.688Z,102196.28
2023-05-08T12:25:31.109Z,102196.88
2023-05-08T12:27:57.590Z,102198.16
2023-05-08T12:30:23.977Z,102194.81
2023-05-08T12:32:50.386Z,102198.00
2023-05-08T12:35:16.805Z,102193.66
2023-05-08T12:37:44.754Z,102189.59
2023-05-08T12:40:22.849Z,102187.66
2023-05-08T12:42:49.411Z,102182.19
2023-05-08T12:45:23.521Z,102186.53
2023-05-08T12:47:50.416Z,102176.97
2023-05-08T12:50:17.565Z,102178.38
2023-05-08T12:52:44.327Z,102176.19
2023-05-08T12:55:20.662Z,102173.75
2023-05-08T12:57:47.162Z,102175.09
2023-05-08T13:00:15.634Z,102174.38
2023-05-08T13:02:51.248Z,102169.66
2023-05-08T13:05:21.324Z,102168.84
2023-05-08T13:07:47.914Z,102173.53
2023-05-08T13:10:14.515Z,102174.59
2023-05-08T13:12:41.008Z,102171.09
2023-05-08T13:15:07.738Z,102176.97
2023-05-08T13:17:34.277Z,102172.25
2023-05-08T13:20:00.845Z,102167.03
2023-05-08T13:22:27.265Z,102167.63
2023-05-08T13:24:53.684Z,102161.88
2023-05-08T13:27:20.309Z,102153.78
2023-05-08T13:29:46.663Z,102161.63
2023-05-08T13:32:13.054Z,102157.31
2023-05-08T13:34:47.209Z,102151.19
2023-05-08T13:37:16.013Z,102159.81
2023-05-08T13:39:42.354Z,102155.03
2023-05-08T13:42:08.840Z,102155.84
2023-05-08T13:44:35.297Z,102155.78
2023-05-08T13:47:01.681Z,102151.31
2023-05-08T13:49:28.182Z,102155.63
2023-05-08T13:51:57.067Z,102151.38
2023-05-08T13:54:23.811Z,102160.25
2023-05-08T13:56:50.294Z,102148.38
2023-05-08T13:59:16.751Z,102151.00
2023-05-08T14:01:44.311Z,102151.84
2023-05-08T14:04:10.879Z,102143.28
2023-05-08T14:06:37.382Z,102131.97
2023-05-08T14:09:11.269Z,102139.09
2023-05-08T14:11:37.615Z,102138.28
2023-05-08T14:14:04.211Z,102138.69
2023-05-08T14:16:30.597Z,102136.78
2023-05-08T14:18:56.972Z,102127.81
2023-05-08T14:21:23.415Z,102123.88
2023-05-08T14:23:49.917Z,102130.25
2023-05-08T14:26:16.361Z,102131.72
2023-05-08T14:28:42.700Z,102123.34
2023-05-08T14:31:09.065Z,102132.91
2023-05-08T14:33:35.490Z,102132.16
2023-05-08T14:36:01.956Z,102129.63
2023-05-08T14:38:28.339Z,102125.44
2023-05-08T14:40:54.764Z,102127.56
2023-05-08T14:43:21.481Z,102114.19
2023-05-08T14:45:47.891Z,102126.06
2023-05-08T14:48:14.624Z,102126.38
2023-05-08T14:50:40.982Z,102130.38
2023-05-08T14:53:07.516Z,102119.94
2023-05-08T14:55:34.147Z,102124.88
2023-05-08T14:58:00.682Z,102120.38
2023-05-08T15:00:27.020Z,102123.28
2023-05-08T15:02:53.416Z,102110.59
2023-05-08T15:05:20.512Z,102118.56
2023-05-08T15:07:47.074Z,102121.25
2023-05-08T15:10:13.453Z,102116.31
2023-05-08T15:12:39.840Z,102123.84
2023-05-08T15:15:06.492Z,102122.00
2023-05-08T15:17:35.604Z,102120.59
2023-05-08T15:20:05.476Z,102121.38
2023-05-08T15:22:31.986Z,102112.19
2023-05-08T15:25:02.449Z,102114.81
2023-05-08T15:27:29.631Z,102117.50
2023-05-08T15:29:56.184Z,102109.22
2023-05-08T15:32:22.676Z,102104.44
2023-05-08T15:34:49.089Z,102109.63
2023-05-08T15:37:15.429Z,102112.31
2023-05-08T15:39:43.112Z,102102.97
2023-05-08T15:42:09.480Z,102095.75
2023-05-08T15:47:05.303Z,102099.53
2023-05-08T15:49:31.654Z,102104.22
2023-05-08T15:51:57.990Z,102099.84
2023-05-08T15:54:24.339Z,102094.13
2023-05-08T15:56:51.002Z,102102.38
2023-05-08T15:59:17.438Z,102094.72
2023-05-08T16:01:43.857Z,102096.56
2023-05-08T16:04:10.236Z,102091.53
2023-05-08T16:06:36.630Z,102098.31
2023-05-08T16:09:03.127Z,102083.88
2023-05-08T16:11:32.456Z,102088.19
2023-05-08T16:13:59.800Z,102082.88
2023-05-08T16:16:26.361Z,102091.03
2023-05-08T16:18:52.807Z,102084.09
2023-05-08T16:21:19.291Z,102085.47
2023-05-08T16:23:46.042Z,102083.75
2023-05-08T16:26:14.016Z,102085.06
2023-05-08T16:28:40.516Z,102085.00
2023-05-08T16:31:07.685Z,102085.16
2023-05-08T16:35:23.621Z,102087.63
2023-05-08T16:37:50.021Z,102087.59
2023-05-08T16:40:16.494Z,102095.47
2023-05-08T16:42:42.891Z,102089.09
2023-05-08T16:45:09.468Z,102086.78
2023-05-08T16:47:36.076Z,102091.03
2023-05-08T16:50:03.078Z,102087.13
2023-05-08T16:52:29.458Z,102083.00
2023-05-08T16:54:55.886Z,102087.13
2023-05-08T16:57:22.501Z,102083.88
2023-05-08T16:59:49.066Z,102082.88
2023-05-08T17:02:19.360Z,102077.59
2023-05-08T17:04:47.267Z,102079.56
2023-05-08T17:07:14.393Z,102077.69
2023-05-08T17:09:41.364Z,102077.19
2023-05-08T17:12:08.025Z,102074.22
2023-05-08T17:14:34.633Z,102082.63
2023-05-08T17:17:01.012Z,102076.59
2023-05-08T17:19:27.397Z,102079.22
2023-05-08T17:21:53.746Z,102085.59
2023-05-08T17:24:20.165Z,102080.03
2023-05-08T17:26:46.602Z,102080.94
2023-05-08T17:29:13.018Z,102080.84
2023-05-08T17:31:39.666Z,102087.53
2023-05-08T17:34:06.163Z,102082.63
2023-05-08T17:36:32.552Z,102083.66
2023-05-08T17:38:58.903Z,102078.75
2023-05-08T17:41:25.688Z,102082.66
2023-05-08T17:43:52.360Z,102087.63
2023-05-08T17:46:18.728Z,102083.44
2023-05-08T17:48:45.196Z,102085.88
2023-05-08T17:51:11.939Z,102084.56
2023-05-08T17:53:39.470Z,102090.38
2023-05-08T17:56:06.347Z,102095.91
2023-05-08T17:58:32.682Z,102096.66
2023-05-08T18:00:59.112Z,102096.53
2023-05-08T18:03:25.931Z,102099.44
2023-05-08T18:05:52.372Z,102094.78
2023-05-08T18:08:18.719Z,102099.59
2023-05-08T18:10:45.142Z,102095.41
2023-05-08T18:13:11.556Z,102095.41
2023-05-08T18:15:39.783Z,102092.84
2023-05-08T18:18:06.228Z,102101.03
2023-05-08T18:20:32.640Z,102107.41
2023-05-08T18:22:58.966Z,102102.38
2023-05-08T18:25:25.359Z,102114.78
2023-05-08T18:27:51.780Z,102102.44
2023-05-08T18:30:18.118Z,102107.91
2023-05-08T18:32:44.575Z,102121.41
2023-05-08T18:35:10.953Z,102116.31
2023-05-08T18:37:37.382Z,102117.56
2023-05-08T18:40:05.096Z,102116.88
2023-05-08T18:42:31.410Z,102119.69
2023-05-08T18:44:57.890Z,102120.72
2023-05-08T18:47:24.547Z,102125.38
2023-05-08T18:49:51.861Z,102116.69
2023-05-08T18:52:18.227Z,102118.59
2023-05-08T18:54:44.583Z,102123.25
2023-05-08T18:57:10.952Z,102119.44
2023-05-08T18:59:37.370Z,102123.00
2023-05-08T19:02:03.947Z,102126.66
2023-05-08T19:04:30.398Z,102125.91
2023-05-08T19:06:56.874Z,102128.81
2023-05-08T19:09:23.369Z,102132.44
2023-05-08T19:11:49.690Z,102134.44
2023-05-08T19:14:16.017Z,102138.09
2023-05-08T19:16:42.438Z,102131.09
2023-05-08T19:19:08.752Z,102137.28
2023-05-08T19:21:35.098Z,102131.16
2023-05-08T19:24:01.459Z,102139.31
2023-05-08T19:26:27.827Z,102139.50
2023-05-08T19:28:54.144Z,102138.63
2023-05-08T19:31:20.507Z,102138.56
2023-05-08T19:33:48.223Z,102137.78
2023-05-08T19:36:14.633Z,102138.66
2023-05-08T19:38:41.051Z,102137.81
2023-05-08T19:41:07.486Z,102134.66
2023-05-08T19:43:33.849Z,102127.69
2023-05-08T19:46:01.369Z,102135.59
2023-05-08T19:48:27.783Z,102137.41
2023-05-08T19:50:55.202Z,102130.53
2023-05-08T19:53:22.197Z,102137.66
2023-05-08T19:55:49.354Z,102127.97
2023-05-08T19:58:17.450Z,102133.22
2023-05-08T20:00:50.935Z,102138.50
2023-05-08T20:03:17.808Z,102128.00
2023-05-08T20:05:44.251Z,102133.31
2023-05-08T20:08:10.587Z,102126.38
2023-05-08T20:10:37.050Z,102124.78
2023-05-08T20:13:03.476Z,102130.28
2023-05-08T20:15:29.930Z,102122.69
2023-05-08T20:17:56.310Z,102120.22
2023-05-08T20:20:22.778Z,102119.41
2023-05-08T20:22:49.103Z,102116.84
2023-05-08T20:25:15.405Z,102122.22
2023-05-08T20:27:41.794Z,102127.56
2023-05-08T20:30:08.301Z,102125.81
2023-05-08T20:32:34.644Z,102126.06
2023-05-08T20:35:01.757Z,102125.28
2023-05-08T20:37:28.165Z,102129.84
2023-05-08T20:39:54.517Z,102128.03
2023-05-08T20:42:20.852Z,102123.81
2023-05-08T20:44:47.187Z,102123.88
2023-05-08T20:47:13.501Z,102131.75
2023-05-08T20:49:39.868Z,102124.75
2023-05-08T20:52:06.272Z,102125.72
2023-05-08T20:54:32.657Z,102120.53
2023-05-08T20:56:59.439Z,102122.34
2023-05-08T20:59:25.781Z,102125.78
2023-05-08T21:01:52.139Z,102126.75
2023-05-08T21:04:18.536Z,102123.19
2023-05-08T21:06:44.916Z,102122.44
2023-05-08T21:09:11.235Z,102124.19
2023-05-08T21:11:37.647Z,102120.75
2023-05-08T21:14:04.005Z,102123.47
2023-05-08T21:16:30.498Z,102120.03
2023-05-08T21:18:59.442Z,102119.16
2023-05-08T21:21:25.856Z,102113.03
2023-05-08T21:23:52.197Z,102112.31
2023-05-08T21:26:19.983Z,102115.88
2023-05-08T21:28:46.323Z,102109.69
2023-05-08T21:31:12.742Z,102109.69
2023-05-08T21:33:39.407Z,102108.84
2023-05-08T21:36:05.885Z,102113.22
2023-05-08T21:38:32.212Z,102114.97
2023-05-08T21:41:04.708Z,102110.63
2023-05-08T21:43:31.081Z,102103.69
2023-05-08T21:45:57.501Z,102108.19
2023-05-08T21:48:24.445Z,102099.53
2023-05-08T21:50:50.764Z,102105.78
2023-05-08T21:53:17.115Z,102103.16
2023-05-08T21:55:43.500Z,102096.16
2023-05-08T21:58:09.815Z,102097.00
2023-05-08T22:00:36.350Z,102099.63
2023-05-08T22:03:02.881Z,102094.47
2023-05-08T22:05:29.328Z,102094.53
2023-05-08T22:07:55.673Z,102098.84
2023-05-08T22:10:22.166Z,102092.81
2023-05-08T22:12:48.621Z,102091.94
2023-05-08T22:15:28.262Z,102086.75
2023-05-08T22:17:56.125Z,102087.72
2023-05-08T22:20:22.576Z,102086.88
2023-05-08T22:22:48.944Z,102084.22
2023-05-08T22:25:15.529Z,102084.31
2023-05-08T22:27:42.051Z,102079.06
2023-05-08T22:30:08.450Z,102078.22
2023-05-08T22:32:34.990Z,102079.19
2023-05-08T22:35:01.386Z,102072.19
2023-05-08T22:37:27.848Z,102078.31
2023-05-08T22:39:54.202Z,102078.34
2023-05-08T22:42:20.546Z,102073.09
2023-05-08T22:44:56.819Z,102070.53
2023-05-08T22:47:23.653Z,102077.53
2023-05-08T22:49:50.351Z,102075.81
2023-05-08T22:52:17.031Z,102073.19
2023-05-08T22:54:43.355Z,102069.72
2023-05-08T22:57:09.767Z,102070.59
2023-05-08T22:59:36.242Z,102067.09
2023-05-08T23:02:02.672Z,102075.91
2023-05-08T23:04:29.063Z,102065.41
2023-05-08T23:06:55.485Z,102069.81
2023-05-08T23:09:22.900Z,102058.47
2023-05-08T23:11:49.966Z,102061.13
2023-05-08T23:14:16.311Z,102071.63
2023-05-08T23:16:42.948Z,102070.78
2023-05-08T23:19:10.040Z,102073.44
2023-05-08T23:21:36.362Z,102075.16
2023-05-08T23:24:02.704Z,102071.63
2023-05-08T23:26:29.093Z,102068.16
2023-05-08T23:28:55.431Z,102067.28
2023-05-08T23:31:21.822Z,102062.94
2023-05-08T23:33:48.149Z,102067.31
2023-05-08T23:36:15.343Z,102063.84
2023-05-08T23:38:41.708Z,102063.81
2023-05-08T23:41:09.215Z,102059.47
2023-05-08T23:43:35.857Z,102056.88
2023-05-08T23:46:02.266Z,102056.00
2023-05-08T23:48:28.610Z,102057.75
2023-05-08T23:50:54.929Z,102057.72
2023-05-08T23:53:21.641Z,102048.97
2023-05-08T23:55:52.273Z,102050.78
2023-05-08T23:58:18.651Z,102049.88
